sensor_id;sensor_type;location;lat;lon;timestamp;pressure;altitude;pressure_sealevel;temperature
19040;BMP180;9652;49.014;12.052;2023-03-15T00:01:03;97074.00;;;8.50
19040;BMP180;9652;49.014;12.052;2023-03-15T00:03:32;97078.00;;;8.50
19040;BMP180;9652;49.014;12.052;2023-03-15T00:06:03;97069.00;;;8.50
19040;BMP180;9652;49.014;12.052;2023-03-15T00:08:30;97098.00;;;8.40
19040;BMP180;9652;49.014;12.052;2023-03-15T00:11:00;97084.00;;;8.40
19040;BMP180;9652;49.014;12.052;2023-03-15T00:13:27;97052.00;;;8.40
19040;BMP180;9652;49.014;12.052;2023-03-15T00:15:58;97083.00;;;8.40
19040;BMP180;9652;49.014;12.052;2023-03-15T00:18:26;97086.00;;;8.40
19040;BMP180;9652;49.014;12.052;2023-03-15T00:20:54;97088.00;;;8.40
19040;BMP180;9652;49.014;12.052;2023-03-15T00:23:21;97075.00;;;8.40
19040;BMP180;9652;49.014;12.052;2023-03-15T00:25:50;97099.00;;;8.40
19040;BMP180;9652;49.014;12.052;2023-03-15T00:28:19;97095.00;;;8.40
19040;BMP180;9652;49.014;12.052;2023-03-15T00:30:46;97102.00;;;8.40
19040;BMP180;9652;49.014;12.052;2023-03-15T00:33:15;97114.00;;;8.40
19040;BMP180;9652;49.014;12.052;2023-03-15T00:35:44;97125.00;;;8.40
19040;BMP180;9652;49.014;12.052;2023-03-15T00:38:12;97124.00;;;8.40
19040;BMP180;9652;49.014;12.052;2023-03-15T00:40:41;97105.00;;;8.40
19040;BMP180;9652;49.014;12.052;2023-03-15T00:43:08;97140.00;;;8.30
19040;BMP180;9652;49.014;12.052;2023-03-15T00:45:36;97143.00;;;8.30
19040;BMP180;9652;49.014;12.052;2023-03-15T00:48:05;97127.00;;;8.20
19040;BMP180;9652;49.014;12.052;2023-03-15T00:50:32;97140.00;;;8.20
19040;BMP180;9652;49.014;12.052;2023-03-15T00:52:59;97110.00;;;8.10
19040;BMP180;9652;49.014;12.052;2023-03-15T00:55:27;97162.00;;;8.10
19040;BMP180;9652;49.014;12.052;2023-03-15T00:57:55;97141.00;;;8.10
19040;BMP180;9652;49.014;12.052;2023-03-15T01:00:23;97142.00;;;8.10
19040;BMP180;9652;49.014;12.052;2023-03-15T01:02:52;97146.00;;;8.10
19040;BMP180;9652;49.014;12.052;2023-03-15T01:05:20;97142.00;;;8.10
19040;BMP180;9652;49.014;12.052;2023-03-15T01:07:48;97148.00;;;8.00
19040;BMP180;9652;49.014;12.052;2023-03-15T01:10:17;97147.00;;;8.00
19040;BMP180;9652;49.014;12.052;2023-03-15T01:12:45;97139.00;;;7.90
19040;BMP180;9652;49.014;12.052;2023-03-15T01:15:14;97148.00;;;7.90
19040;BMP180;9652;49.014;12.052;2023-03-15T01:17:42;97156.00;;;7.80
19040;BMP180;9652;49.014;12.052;2023-03-15T01:20:13;97148.00;;;7.80
19040;BMP180;9652;49.014;12.052;2023-03-15T01:22:41;97168.00;;;7.60
19040;BMP180;9652;49.014;12.052;2023-03-15T01:25:09;97165.00;;;7.70
19040;BMP180;9652;49.014;12.052;2023-03-15T01:27:36;97174.00;;;7.50
19040;BMP180;9652;49.014;12.052;2023-03-15T01:30:05;97167.00;;;7.50
19040;BMP180;9652;49.014;12.052;2023-03-15T01:32:33;97173.00;;;7.40
19040;BMP180;9652;49.014;12.052;2023-03-15T01:35:00;97142.00;;;7.40
19040;BMP180;9652;49.014;12.052;2023-03-15T01:37:29;97173.00;;;7.40
19040;BMP180;9652;49.014;12.052;2023-03-15T01:39:57;97179.00;;;7.40
19040;BMP180;9652;49.014;12.052;2023-03-15T01:42:25;97157.00;;;7.30
19040;BMP180;9652;49.014;12.052;2023-03-15T01:44:54;97175.00;;;7.30
19040;BMP180;9652;49.014;12.052;2023-03-15T01:47:23;97168.00;;;7.30
19040;BMP180;9652;49.014;12.052;2023-03-15T01:50:00;97167.00;;;7.30
19040;BMP180;9652;49.014;12.052;2023-03-15T01:52:35;97123.00;;;7.20
19040;BMP180;9652;49.014;12.052;2023-03-15T01:55:07;97161.00;;;7.20
19040;BMP180;9652;49.014;12.052;2023-03-15T01:57:44;97183.00;;;7.20
19040;BMP180;9652;49.014;12.052;2023-03-15T02:00:15;97174.00;;;7.20
19040;BMP180;9652;49.014;12.052;2023-03-15T02:02:59;97156.00;;;7.20
19040;BMP180;9652;49.014;12.052;2023-03-15T02:05:34;97161.00;;;7.20
19040;BMP180;9652;49.014;12.052;2023-03-15T02:08:08;97183.00;;;7.20
19040;BMP180;9652;49.014;12.052;2023-03-15T02:10:43;97198.00;;;7.20
19040;BMP180;9652;49.014;12.052;2023-03-15T02:13:15;97182.00;;;7.20
19040;BMP180;9652;49.014;12.052;2023-03-15T02:15:43;97211.00;;;7.30
19040;BMP180;9652;49.014;12.052;2023-03-15T02:18:16;97222.00;;;7.30
19040;BMP180;9652;49.014;12.052;2023-03-15T02:20:51;97184.00;;;7.30
19040;BMP180;9652;49.014;12.052;2023-03-15T02:23:23;97229.00;;;7.30
19040;BMP180;9652;49.014;12.052;2023-03-15T02:26:00;97231.00;;;7.30
19040;BMP180;9652;49.014;12.052;2023-03-15T02:28:31;97243.00;;;7.30
19040;BMP180;9652;49.014;12.052;2023-03-15T02:30:59;97248.00;;;7.30
19040;BMP180;9652;49.014;12.052;2023-03-15T02:33:33;97245.00;;;7.40
19040;BMP180;9652;49.014;12.052;2023-03-15T02:36:10;97253.00;;;7.40
19040;BMP180;9652;49.014;12.052;2023-03-15T02:38:40;97260.00;;;7.40
19040;BMP180;9652;49.014;12.052;2023-03-15T02:41:07;97264.00;;;6.90
19040;BMP180;9652;49.014;12.052;2023-03-15T02:43:37;97267.00;;;7.40
19040;BMP180;9652;49.014;12.052;2023-03-15T02:46:05;97277.00;;;7.40
19040;BMP180;9652;49.014;12.052;2023-03-15T02:48:34;97281.00;;;7.40
19040;BMP180;9652;49.014;12.052;2023-03-15T02:51:02;97286.00;;;7.40
19040;BMP180;9652;49.014;12.052;2023-03-15T02:53:31;97303.00;;;7.40
19040;BMP180;9652;49.014;12.052;2023-03-15T02:55:58;97299.00;;;7.40
19040;BMP180;9652;49.014;12.052;2023-03-15T02:58:25;97313.00;;;7.40
19040;BMP180;9652;49.014;12.052;2023-03-15T03:00:54;97320.00;;;7.40
19040;BMP180;9652;49.014;12.052;2023-03-15T03:03:21;97317.00;;;7.30
19040;BMP180;9652;49.014;12.052;2023-03-15T03:05:48;97320.00;;;7.30
19040;BMP180;9652;49.014;12.052;2023-03-15T03:08:15;97351.00;;;7.20
19040;BMP180;9652;49.014;12.052;2023-03-15T03:10:43;97329.00;;;7.10
19040;BMP180;9652;49.014;12.052;2023-03-15T03:13:10;97341.00;;;7.00
19040;BMP180;9652;49.014;12.052;2023-03-15T03:15:38;97350.00;;;6.90
19040;BMP180;9652;49.014;12.052;2023-03-15T03:18:06;97352.00;;;6.90
19040;BMP180;9652;49.014;12.052;2023-03-15T03:20:33;97359.00;;;6.80
19040;BMP180;9652;49.014;12.052;2023-03-15T03:23:00;97365.00;;;6.80
19040;BMP180;9652;49.014;12.052;2023-03-15T03:25:31;97378.00;;;6.70
19040;BMP180;9652;49.014;12.052;2023-03-15T03:27:58;97327.00;;;6.60
19040;BMP180;9652;49.014;12.052;2023-03-15T03:30:29;97392.00;;;6.60
19040;BMP180;9652;49.014;12.052;2023-03-15T03:32:57;97408.00;;;6.00
19040;BMP180;9652;49.014;12.052;2023-03-15T03:35:25;97407.00;;;6.40
19040;BMP180;9652;49.014;12.052;2023-03-15T03:37:54;97408.00;;;6.30
19040;BMP180;9652;49.014;12.052;2023-03-15T03:40:27;97404.00;;;6.10
19040;BMP180;9652;49.014;12.052;2023-03-15T03:42:54;97376.00;;;6.00
19040;BMP180;9652;49.014;12.052;2023-03-15T03:45:22;97416.00;;;5.80
19040;BMP180;9652;49.014;12.052;2023-03-15T03:47:52;97437.00;;;5.70
19040;BMP180;9652;49.014;12.052;2023-03-15T03:50:20;97434.00;;;5.70
19040;BMP180;9652;49.014;12.052;2023-03-15T03:52:49;97428.00;;;5.70
19040;BMP180;9652;49.014;12.052;2023-03-15T03:55:24;97438.00;;;5.70
19040;BMP180;9652;49.014;12.052;2023-03-15T03:57:52;97344.00;;;5.70
19040;BMP180;9652;49.014;12.052;2023-03-15T04:00:34;97461.00;;;5.80
19040;BMP180;9652;49.014;12.052;2023-03-15T04:03:03;97442.00;;;5.80
19040;BMP180;9652;49.014;12.052;2023-03-15T04:05:32;97466.00;;;5.80
19040;BMP180;9652;49.014;12.052;2023-03-15T04:08:01;97415.00;;;5.90
19040;BMP180;9652;49.014;12.052;2023-03-15T04:10:33;97458.00;;;5.90
19040;BMP180;9652;49.014;12.052;2023-03-15T04:13:01;97447.00;;;5.90
19040;BMP180;9652;49.014;12.052;2023-03-15T04:15:28;97464.00;;;6.00
19040;BMP180;9652;49.014;12.052;2023-03-15T04:17:57;97468.00;;;6.00
19040;BMP180;9652;49.014;12.052;2023-03-15T04:20:29;97485.00;;;6.00
19040;BMP180;9652;49.014;12.052;2023-03-15T04:23:01;97485.00;;;6.10
19040;BMP180;9652;49.014;12.052;2023-03-15T04:25:47;97477.00;;;6.10
19040;BMP180;9652;49.014;12.052;2023-03-15T04:28:39;97480.00;;;6.10
19040;BMP180;9652;49.014;12.052;2023-03-15T04:31:19;97488.00;;;6.20
19040;BMP180;9652;49.014;12.052;2023-03-15T04:33:58;97487.00;;;6.10
19040;BMP180;9652;49.014;12.052;2023-03-15T04:36:45;97474.00;;;6.20
19040;BMP180;9652;49.014;12.052;2023-03-15T04:39:28;97496.00;;;6.20
19040;BMP180;9652;49.014;12.052;2023-03-15T04:42:13;97522.00;;;6.20
19040;BMP180;9652;49.014;12.052;2023-03-15T04:45:00;97526.00;;;6.20
19040;BMP180;9652;49.014;12.052;2023-03-15T04:47:52;97532.00;;;6.20
19040;BMP180;9652;49.014;12.052;2023-03-15T04:50:31;97526.00;;;6.20
19040;BMP180;9652;49.014;12.052;2023-03-15T04:53:24;97535.00;;;6.30
19040;BMP180;9652;49.014;12.052;2023-03-15T04:56:16;97541.00;;;6.30
19040;BMP180;9652;49.014;12.052;2023-03-15T04:59:02;97539.00;;;6.30
19040;BMP180;9652;49.014;12.052;2023-03-15T05:01:49;97572.00;;;6.30
19040;BMP180;9652;49.014;12.052;2023-03-15T05:04:27;97465.00;;;6.30
19040;BMP180;9652;49.014;12.052;2023-03-15T05:07:19;97551.00;;;6.30
19040;BMP180;9652;49.014;12.052;2023-03-15T05:10:04;97588.00;;;6.30
19040;BMP180;9652;49.014;12.052;2023-03-15T05:12:54;97583.00;;;6.30
19040;BMP180;9652;49.014;12.052;2023-03-15T05:15:35;97595.00;;;6.30
19040;BMP180;9652;49.014;12.052;2023-03-15T05:18:23;97591.00;;;6.30
19040;BMP180;9652;49.014;12.052;2023-03-15T05:21:07;97602.00;;;6.30
19040;BMP180;9652;49.014;12.052;2023-03-15T05:23:49;97611.00;;;6.30
19040;BMP180;9652;49.014;12.052;2023-03-15T05:26:34;97622.00;;;6.20
19040;BMP180;9652;49.014;12.052;2023-03-15T05:29:24;97632.00;;;6.20
19040;BMP180;9652;49.014;12.052;2023-03-15T05:32:08;97641.00;;;6.20
19040;BMP180;9652;49.014;12.052;2023-03-15T05:34:58;97649.00;;;6.10
19040;BMP180;9652;49.014;12.052;2023-03-15T05:37:47;97648.00;;;6.10
19040;BMP180;9652;49.014;12.052;2023-03-15T05:40:32;97648.00;;;6.10
19040;BMP180;9652;49.014;12.052;2023-03-15T05:43:07;97660.00;;;6.00
19040;BMP180;9652;49.014;12.052;2023-03-15T05:45:54;97659.00;;;6.00
19040;BMP180;9652;49.014;12.052;2023-03-15T05:48:54;97660.00;;;5.90
19040;BMP180;9652;49.014;12.052;2023-03-15T05:51:32;97668.00;;;5.90
19040;BMP180;9652;49.014;12.052;2023-03-15T05:54:10;97675.00;;;5.80
19040;BMP180;9652;49.014;12.052;2023-03-15T05:56:57;97672.00;;;5.80
19040;BMP180;9652;49.014;12.052;2023-03-15T05:59:35;97682.00;;;5.80
19040;BMP180;9652;49.014;12.052;2023-03-15T06:02:22;97686.00;;;5.70
19040;BMP180;9652;49.014;12.052;2023-03-15T06:05:06;97683.00;;;5.70
19040;BMP180;9652;49.014;12.052;2023-03-15T06:07:34;97678.00;;;5.60
19040;BMP180;9652;49.014;12.052;2023-03-15T06:10:04;97680.00;;;5.60
19040;BMP180;9652;49.014;12.052;2023-03-15T06:12:31;97698.00;;;5.60
19040;BMP180;9652;49.014;12.052;2023-03-15T06:14:59;97698.00;;;5.60
19040;BMP180;9652;49.014;12.052;2023-03-15T06:17:28;97704.00;;;5.60
19040;BMP180;9652;49.014;12.052;2023-03-15T06:19:55;97708.00;;;5.60
19040;BMP180;9652;49.014;12.052;2023-03-15T06:22:22;97705.00;;;5.60
19040;BMP180;9652;49.014;12.052;2023-03-15T06:24:57;97698.00;;;5.50
19040;BMP180;9652;49.014;12.052;2023-03-15T06:27:24;97675.00;;;5.50
19040;BMP180;9652;49.014;12.052;2023-03-15T06:29:53;97673.00;;;5.50
19040;BMP180;9652;49.014;12.052;2023-03-15T06:32:22;97720.00;;;5.50
19040;BMP180;9652;49.014;12.052;2023-03-15T06:34:51;97737.00;;;5.50
19040;BMP180;9652;49.014;12.052;2023-03-15T06:37:18;97736.00;;;5.50
19040;BMP180;9652;49.014;12.052;2023-03-15T06:39:47;97729.00;;;5.50
19040;BMP180;9652;49.014;12.052;2023-03-15T06:42:16;97726.00;;;5.60
19040;BMP180;9652;49.014;12.052;2023-03-15T06:44:44;97710.00;;;5.60
19040;BMP180;9652;49.014;12.052;2023-03-15T06:47:13;97721.00;;;5.60
19040;BMP180;9652;49.014;12.052;2023-03-15T06:49:40;97734.00;;;5.60
19040;BMP180;9652;49.014;12.052;2023-03-15T06:52:10;97733.00;;;5.70
19040;BMP180;9652;49.014;12.052;2023-03-15T06:54:37;97761.00;;;5.70
19040;BMP180;9652;49.014;12.052;2023-03-15T06:57:05;97755.00;;;5.70
19040;BMP180;9652;49.014;12.052;2023-03-15T06:59:32;97771.00;;;5.80
19040;BMP180;9652;49.014;12.052;2023-03-15T07:01:59;97777.00;;;5.80
19040;BMP180;9652;49.014;12.052;2023-03-15T07:04:26;97773.00;;;5.80
19040;BMP180;9652;49.014;12.052;2023-03-15T07:06:53;97771.00;;;5.80
19040;BMP180;9652;49.014;12.052;2023-03-15T07:09:22;97775.00;;;5.90
19040;BMP180;9652;49.014;12.052;2023-03-15T07:11:49;97717.00;;;6.00
19040;BMP180;9652;49.014;12.052;2023-03-15T07:14:16;97781.00;;;6.10
19040;BMP180;9652;49.014;12.052;2023-03-15T07:16:43;97747.00;;;6.20
19040;BMP180;9652;49.014;12.052;2023-03-15T07:19:10;97711.00;;;6.30
19040;BMP180;9652;49.014;12.052;2023-03-15T07:21:37;97789.00;;;6.40
19040;BMP180;9652;49.014;12.052;2023-03-15T07:24:04;97791.00;;;6.50
19040;BMP180;9652;49.014;12.052;2023-03-15T07:26:33;97799.00;;;6.50
19040;BMP180;9652;49.014;12.052;2023-03-15T07:29:00;97797.00;;;6.60
19040;BMP180;9652;49.014;12.052;2023-03-15T07:31:27;97797.00;;;6.70
19040;BMP180;9652;49.014;12.052;2023-03-15T07:33:54;97805.00;;;6.70
19040;BMP180;9652;49.014;12.052;2023-03-15T07:36:21;97789.00;;;6.80
19040;BMP180;9652;49.014;12.052;2023-03-15T07:38:48;97801.00;;;6.80
19040;BMP180;9652;49.014;12.052;2023-03-15T07:41:15;97771.00;;;7.00
19040;BMP180;9652;49.014;12.052;2023-03-15T07:43:55;97791.00;;;7.00
19040;BMP180;9652;49.014;12.052;2023-03-15T07:46:22;97809.00;;;7.10
19040;BMP180;9652;49.014;12.052;2023-03-15T07:48:50;97807.00;;;7.20
19040;BMP180;9652;49.014;12.052;2023-03-15T07:51:17;97778.00;;;7.20
19040;BMP180;9652;49.014;12.052;2023-03-15T07:53:44;97826.00;;;7.20
19040;BMP180;9652;49.014;12.052;2023-03-15T07:56:11;97823.00;;;7.30
19040;BMP180;9652;49.014;12.052;2023-03-15T07:58:38;97821.00;;;7.10
19040;BMP180;9652;49.014;12.052;2023-03-15T08:01:06;97790.00;;;7.40
19040;BMP180;9652;49.014;12.052;2023-03-15T08:03:33;97825.00;;;7.40
19040;BMP180;9652;49.014;12.052;2023-03-15T08:06:01;97814.00;;;7.40
19040;BMP180;9652;49.014;12.052;2023-03-15T08:08:28;97828.00;;;7.40
19040;BMP180;9652;49.014;12.052;2023-03-15T08:10:55;97823.00;;;7.50
19040;BMP180;9652;49.014;12.052;2023-03-15T08:13:24;97828.00;;;7.50
19040;BMP180;9652;49.014;12.052;2023-03-15T08:15:51;97828.00;;;7.60
19040;BMP180;9652;49.014;12.052;2023-03-15T08:18:19;97810.00;;;7.70
19040;BMP180;9652;49.014;12.052;2023-03-15T08:20:46;97817.00;;;7.70
19040;BMP180;9652;49.014;12.052;2023-03-15T08:23:13;97835.00;;;7.80
19040;BMP180;9652;49.014;12.052;2023-03-15T08:25:42;97814.00;;;7.80
19040;BMP180;9652;49.014;12.052;2023-03-15T08:28:09;97830.00;;;7.80
19040;BMP180;9652;49.014;12.052;2023-03-15T08:30:37;97812.00;;;7.80
19040;BMP180;9652;49.014;12.052;2023-03-15T08:33:05;97839.00;;;7.70
19040;BMP180;9652;49.014;12.052;2023-03-15T08:35:34;97781.00;;;7.60
19040;BMP180;9652;49.014;12.052;2023-03-15T08:38:01;97813.00;;;7.70
19040;BMP180;9652;49.014;12.052;2023-03-15T08:40:29;97838.00;;;7.70
19040;BMP180;9652;49.014;12.052;2023-03-15T08:42:57;97732.00;;;7.80
19040;BMP180;9652;49.014;12.052;2023-03-15T08:45:26;97826.00;;;7.90
19040;BMP180;9652;49.014;12.052;2023-03-15T08:47:56;97836.00;;;8.00
19040;BMP180;9652;49.014;12.052;2023-03-15T08:50:25;97831.00;;;8.10
19040;BMP180;9652;49.014;12.052;2023-03-15T08:52:54;97817.00;;;8.20
19040;BMP180;9652;49.014;12.052;2023-03-15T08:55:21;97824.00;;;8.40
19040;BMP180;9652;49.014;12.052;2023-03-15T08:57:48;97823.00;;;8.50
19040;BMP180;9652;49.014;12.052;2023-03-15T09:00:16;97816.00;;;8.60
19040;BMP180;9652;49.014;12.052;2023-03-15T09:02:45;97798.00;;;8.70
19040;BMP180;9652;49.014;12.052;2023-03-15T09:05:14;97833.00;;;8.70
19040;BMP180;9652;49.014;12.052;2023-03-15T09:07:42;97828.00;;;8.70
19040;BMP180;9652;49.014;12.052;2023-03-15T09:10:13;97844.00;;;8.70
19040;BMP180;9652;49.014;12.052;2023-03-15T09:12:41;97833.00;;;8.60
19040;BMP180;9652;49.014;12.052;2023-03-15T09:15:09;97844.00;;;8.50
19040;BMP180;9652;49.014;12.052;2023-03-15T09:17:37;97841.00;;;8.50
19040;BMP180;9652;49.014;12.052;2023-03-15T09:20:05;97846.00;;;8.50
19040;BMP180;9652;49.014;12.052;2023-03-15T09:22:37;97854.00;;;8.50
19040;BMP180;9652;49.014;12.052;2023-03-15T09:25:05;97852.00;;;8.50
19040;BMP180;9652;49.014;12.052;2023-03-15T09:27:34;97857.00;;;8.50
19040;BMP180;9652;49.014;12.052;2023-03-15T09:30:02;97850.00;;;8.50
19040;BMP180;9652;49.014;12.052;2023-03-15T09:32:29;97845.00;;;8.60
19040;BMP180;9652;49.014;12.052;2023-03-15T09:35:01;97814.00;;;8.70
19040;BMP180;9652;49.014;12.052;2023-03-15T09:37:29;97853.00;;;8.80
19040;BMP180;9652;49.014;12.052;2023-03-15T09:39:56;97841.00;;;8.90
19040;BMP180;9652;49.014;12.052;2023-03-15T09:42:36;97877.00;;;8.90
19040;BMP180;9652;49.014;12.052;2023-03-15T09:45:18;97861.00;;;8.30
19040;BMP180;9652;49.014;12.052;2023-03-15T09:47:59;97806.00;;;9.00
19040;BMP180;9652;49.014;12.052;2023-03-15T09:50:34;97862.00;;;9.10
19040;BMP180;9652;49.014;12.052;2023-03-15T09:53:08;97881.00;;;9.10
19040;BMP180;9652;49.014;12.052;2023-03-15T09:55:40;97868.00;;;9.20
19040;BMP180;9652;49.014;12.052;2023-03-15T09:58:15;97877.00;;;9.20
19040;BMP180;9652;49.014;12.052;2023-03-15T10:00:46;97886.00;;;9.20
19040;BMP180;9652;49.014;12.052;2023-03-15T10:03:22;97896.00;;;9.30
19040;BMP180;9652;49.014;12.052;2023-03-15T10:05:57;97892.00;;;9.30
19040;BMP180;9652;49.014;12.052;2023-03-15T10:08:27;97888.00;;;9.30
19040;BMP180;9652;49.014;12.052;2023-03-15T10:11:04;97891.00;;;9.30
19040;BMP180;9652;49.014;12.052;2023-03-15T10:13:52;97877.00;;;9.20
19040;BMP180;9652;49.014;12.052;2023-03-15T10:16:33;97886.00;;;8.90
19040;BMP180;9652;49.014;12.052;2023-03-15T10:19:14;97892.00;;;9.20
19040;BMP180;9652;49.014;12.052;2023-03-15T10:21:53;97871.00;;;9.30
19040;BMP180;9652;49.014;12.052;2023-03-15T10:24:33;97879.00;;;9.50
19040;BMP180;9652;49.014;12.052;2023-03-15T10:27:15;97889.00;;;9.70
19040;BMP180;9652;49.014;12.052;2023-03-15T10:29:46;97896.00;;;9.80
19040;BMP180;9652;49.014;12.052;2023-03-15T10:32:17;97892.00;;;9.90
19040;BMP180;9652;49.014;12.052;2023-03-15T10:34:48;97872.00;;;10.00
19040;BMP180;9652;49.014;12.052;2023-03-15T10:37:17;97872.00;;;10.20
19040;BMP180;9652;49.014;12.052;2023-03-15T10:39:48;97890.00;;;10.20
19040;BMP180;9652;49.014;12.052;2023-03-15T10:42:27;97880.00;;;10.30
19040;BMP180;9652;49.014;12.052;2023-03-15T10:44:56;97886.00;;;10.40
19040;BMP180;9652;49.014;12.052;2023-03-15T10:47:25;97898.00;;;10.40
19040;BMP180;9652;49.014;12.052;2023-03-15T10:49:56;97891.00;;;10.40
19040;BMP180;9652;49.014;12.052;2023-03-15T10:52:28;97868.00;;;10.40
19040;BMP180;9652;49.014;12.052;2023-03-15T10:55:03;97871.00;;;10.50
19040;BMP180;9652;49.014;12.052;2023-03-15T10:57:36;97870.00;;;10.60
19040;BMP180;9652;49.014;12.052;2023-03-15T11:00:21;97875.00;;;10.60
19040;BMP180;9652;49.014;12.052;2023-03-15T11:03:01;97868.00;;;10.70
19040;BMP180;9652;49.014;12.052;2023-03-15T11:05:31;97837.00;;;10.80
19040;BMP180;9652;49.014;12.052;2023-03-15T11:08:00;97839.00;;;10.90
19040;BMP180;9652;49.014;12.052;2023-03-15T11:10:33;97838.00;;;11.10
19040;BMP180;9652;49.014;12.052;2023-03-15T11:13:18;97841.00;;;11.20
19040;BMP180;9652;49.014;12.052;2023-03-15T11:15:57;97857.00;;;11.40
19040;BMP180;9652;49.014;12.052;2023-03-15T11:18:30;97837.00;;;11.50
19040;BMP180;9652;49.014;12.052;2023-03-15T11:21:01;97813.00;;;11.60
19040;BMP180;9652;49.014;12.052;2023-03-15T11:23:35;97834.00;;;11.70
19040;BMP180;9652;49.014;12.052;2023-03-15T11:26:03;97854.00;;;11.80
19040;BMP180;9652;49.014;12.052;2023-03-15T11:28:34;97870.00;;;11.90
19040;BMP180;9652;49.014;12.052;2023-03-15T11:31:04;97840.00;;;12.00
19040;BMP180;9652;49.014;12.052;2023-03-15T11:33:40;97832.00;;;12.10
19040;BMP180;9652;49.014;12.052;2023-03-15T11:36:16;97790.00;;;12.20
19040;BMP180;9652;49.014;12.052;2023-03-15T11:38:44;97844.00;;;12.30
19040;BMP180;9652;49.014;12.052;2023-03-15T11:41:31;97849.00;;;12.20
19040;BMP180;9652;49.014;12.052;2023-03-15T11:44:11;97828.00;;;12.20
19040;BMP180;9652;49.014;12.052;2023-03-15T11:46:47;97852.00;;;12.30
19040;BMP180;9652;49.014;12.052;2023-03-15T11:49:32;97840.00;;;12.20
19040;BMP180;9652;49.014;12.052;2023-03-15T11:52:02;97842.00;;;12.10
19040;BMP180;9652;49.014;12.052;2023-03-15T11:54:30;97831.00;;;12.00
19040;BMP180;9652;49.014;12.052;2023-03-15T11:57:03;97826.00;;;11.90
19040;BMP180;9652;49.014;12.052;2023-03-15T11:59:33;97822.00;;;11.80
19040;BMP180;9652;49.014;12.052;2023-03-15T12:02:48;97825.00;;;11.70
19040;BMP180;9652;49.014;12.052;2023-03-15T12:05:46;97833.00;;;11.80
19040;BMP180;9652;49.014;12.052;2023-03-15T12:08:23;97784.00;;;11.80
19040;BMP180;9652;49.014;12.052;2023-03-15T12:11:10;97815.00;;;11.90
19040;BMP180;9652;49.014;12.052;2023-03-15T12:13:50;97822.00;;;11.90
19040;BMP180;9652;49.014;12.052;2023-03-15T12:16:20;97810.00;;;11.90
19040;BMP180;9652;49.014;12.052;2023-03-15T12:18:49;97813.00;;;11.90
19040;BMP180;9652;49.014;12.052;2023-03-15T12:21:21;97815.00;;;11.90
19040;BMP180;9652;49.014;12.052;2023-03-15T12:24:02;97798.00;;;11.80
19040;BMP180;9652;49.014;12.052;2023-03-15T12:26:46;97806.00;;;11.80
19040;BMP180;9652;49.014;12.052;2023-03-15T12:29:20;97803.00;;;11.80
19040;BMP180;9652;49.014;12.052;2023-03-15T12:31:57;97801.00;;;11.90
19040;BMP180;9652;49.014;12.052;2023-03-15T12:34:34;97786.00;;;11.90
19040;BMP180;9652;49.014;12.052;2023-03-15T12:37:08;97777.00;;;12.00
19040;BMP180;9652;49.014;12.052;2023-03-15T12:39:43;97796.00;;;12.10
19040;BMP180;9652;49.014;12.052;2023-03-15T12:45:43;97784.00;;;12.40
19040;BMP180;9652;49.014;12.052;2023-03-15T12:48:29;97804.00;;;12.50
19040;BMP180;9652;49.014;12.052;2023-03-15T12:51:10;97799.00;;;12.50
19040;BMP180;9652;49.014;12.052;2023-03-15T12:53:48;97812.00;;;12.70
19040;BMP180;9652;49.014;12.052;2023-03-15T12:56:43;97795.00;;;12.60
19040;BMP180;9652;49.014;12.052;2023-03-15T12:59:28;97809.00;;;12.70
19040;BMP180;9652;49.014;12.052;2023-03-15T13:01:58;97812.00;;;12.70
19040;BMP180;9652;49.014;12.052;2023-03-15T13:04:27;97815.00;;;12.60
19040;BMP180;9652;49.014;12.052;2023-03-15T13:07:09;97810.00;;;12.60
19040;BMP180;9652;49.014;12.052;2023-03-15T13:10:06;97830.00;;;12.50
19040;BMP180;9652;49.014;12.052;2023-03-15T13:12:48;97824.00;;;12.40
19040;BMP180;9652;49.014;12.052;2023-03-15T13:15:22;97835.00;;;12.30
19040;BMP180;9652;49.014;12.052;2023-03-15T13:17:55;97786.00;;;12.10
19040;BMP180;9652;49.014;12.052;2023-03-15T13:20:41;97838.00;;;12.00
19040;BMP180;9652;49.014;12.052;2023-03-15T13:23:19;97830.00;;;11.90
19040;BMP180;9652;49.014;12.052;2023-03-15T13:26:16;97828.00;;;11.80
19040;BMP180;9652;49.014;12.052;2023-03-15T13:28:49;97837.00;;;11.80
19040;BMP180;9652;49.014;12.052;2023-03-15T13:31:21;97829.00;;;11.80
19040;BMP180;9652;49.014;12.052;2023-03-15T13:33:51;97832.00;;;11.80
19040;BMP180;9652;49.014;12.052;2023-03-15T13:36:25;97826.00;;;11.80
19040;BMP180;9652;49.014;12.052;2023-03-15T13:38:55;97843.00;;;11.80
19040;BMP180;9652;49.014;12.052;2023-03-15T13:41:25;97816.00;;;11.90
19040;BMP180;9652;49.014;12.052;2023-03-15T13:43:56;97844.00;;;11.90
19040;BMP180;9652;49.014;12.052;2023-03-15T13:46:27;97850.00;;;11.90
19040;BMP180;9652;49.014;12.052;2023-03-15T13:48:55;97834.00;;;11.90
19040;BMP180;9652;49.014;12.052;2023-03-15T13:51:26;97844.00;;;11.90
19040;BMP180;9652;49.014;12.052;2023-03-15T13:54:00;97847.00;;;11.90
19040;BMP180;9652;49.014;12.052;2023-03-15T13:56:33;97816.00;;;11.90
19040;BMP180;9652;49.014;12.052;2023-03-15T13:59:02;97829.00;;;11.90
19040;BMP180;9652;49.014;12.052;2023-03-15T14:01:31;97870.00;;;11.80
19040;BMP180;9652;49.014;12.052;2023-03-15T14:04:07;97872.00;;;11.70
19040;BMP180;9652;49.014;12.052;2023-03-15T14:06:37;97879.00;;;11.60
19040;BMP180;9652;49.014;12.052;2023-03-15T14:09:19;97881.00;;;11.40
19040;BMP180;9652;49.014;12.052;2023-03-15T14:12:01;97896.00;;;11.10
19040;BMP180;9652;49.014;12.052;2023-03-15T14:14:31;97893.00;;;11.10
19040;BMP180;9652;49.014;12.052;2023-03-15T14:17:07;97880.00;;;10.90
19040;BMP180;9652;49.014;12.052;2023-03-15T14:19:51;97893.00;;;10.70
19040;BMP180;9652;49.014;12.052;2023-03-15T14:22:20;97875.00;;;10.60
19040;BMP180;9652;49.014;12.052;2023-03-15T14:24:50;97880.00;;;10.50
19040;BMP180;9652;49.014;12.052;2023-03-15T14:27:22;97871.00;;;10.40
19040;BMP180;9652;49.014;12.052;2023-03-15T14:29:54;97888.00;;;10.40
19040;BMP180;9652;49.014;12.052;2023-03-15T14:32:26;97890.00;;;10.30
19040;BMP180;9652;49.014;12.052;2023-03-15T14:35:01;97871.00;;;10.30
19040;BMP180;9652;49.014;12.052;2023-03-15T14:37:35;97867.00;;;10.30
19040;BMP180;9652;49.014;12.052;2023-03-15T14:40:15;97865.00;;;10.20
19040;BMP180;9652;49.014;12.052;2023-03-15T14:42:45;97872.00;;;10.20
19040;BMP180;9652;49.014;12.052;2023-03-15T14:45:14;97881.00;;;10.20
19040;BMP180;9652;49.014;12.052;2023-03-15T14:47:45;97879.00;;;10.10
19040;BMP180;9652;49.014;12.052;2023-03-15T14:50:14;97873.00;;;10.10
19040;BMP180;9652;49.014;12.052;2023-03-15T14:52:43;97888.00;;;10.10
19040;BMP180;9652;49.014;12.052;2023-03-15T14:55:17;97871.00;;;10.10